Time;durP1;ratioP1;P1;durP2;ratioP2;P2;SDS_P1;SDS_P2;PMS_P1;PMS_P2;Temp;Humidity;BMP_temperature;BMP_pressure;BME280_temperature;BME280_humidity;BME280_pressure;Samples;Min_cycle;Max_cycle;Signal;HPM_P1;HPM_P2
2023/02/05 00:01:20;;;;;;;73.38;24.42;;;;;;;18.89;92.29;103539.63;5059243;28;20033;-52
2023/02/05 00:03:46;;;;;;;76.28;26.17;;;;;;;18.47;96.15;103530.19;5061361;28;20043;-53
2023/02/05 00:06:11;;;;;;;72.27;24.83;;;;;;;18.20;97.52;103530.56;5059558;28;20041;-55
2023/02/05 00:08:38;;;;;;;79.73;26.87;;;;;;;18.96;94.39;103523.44;5059368;28;20037;-51
2023/02/05 00:11:08;;;;;;;74.47;26.30;;;;;;;18.57;97.15;103517.25;5058911;28;20082;-55
2023/02/05 00:13:38;;;;;;;73.17;27.30;;;;;;;18.53;97.25;103509.66;5054381;28;20060;-55
2023/02/05 00:16:12;;;;;;;77.63;26.67;;;;;;;19.13;93.44;103502.44;5060596;28;20305;-56
2023/02/05 00:18:38;;;;;;;70.50;27.73;;;;;;;19.14;93.37;103500.53;5060938;28;20282;-56
2023/02/05 00:21:05;;;;;;;74.50;28.60;;;;;;;19.04;92.39;103484.59;5060868;28;20278;-53
2023/02/05 00:23:31;;;;;;;74.77;27.97;;;;;;;18.80;95.01;103491.94;5057897;28;20029;-55
2023/02/05 00:25:56;;;;;;;78.82;28.17;;;;;;;18.85;95.40;103489.50;5062462;28;20299;-54
2023/02/05 00:28:22;;;;;;;83.20;29.37;;;;;;;19.28;92.78;103496.16;5059130;28;20041;-54
2023/02/05 00:30:49;;;;;;;69.90;27.93;;;;;;;19.18;91.66;103486.41;5058506;28;20025;-54
2023/02/05 00:33:15;;;;;;;70.53;26.67;;;;;;;18.46;96.71;103472.47;5057815;28;20295;-55
2023/02/05 00:35:41;;;;;;;;;;;;;;;18.87;95.47;103475.75;5057757;28;20064;-55
2023/02/05 00:38:09;;;;;;;69.77;27.77;;;;;;;19.17;93.21;103471.19;5061546;28;19924;-55
2023/02/05 00:40:35;;;;;;;73.20;27.60;;;;;;;19.24;92.76;103467.69;5060265;28;20286;-54
2023/02/05 00:43:00;;;;;;;78.43;26.70;;;;;;;18.60;97.71;103461.81;5057653;28;20048;-54
2023/02/05 00:45:33;;;;;;;71.45;27.45;;;;;;;17.90;100.00;103465.44;5057531;28;20033;-54
2023/02/05 00:48:03;;;;;;;64.77;27.20;;;;;;;18.42;99.34;103463.00;5056667;28;20041;-49
2023/02/05 00:50:30;;;;;;;71.87;27.77;;;;;;;18.33;100.00;103464.13;5054317;28;20349;-53
2023/02/05 00:52:56;;;;;;;75.93;28.93;;;;;;;18.47;99.69;103471.44;5056604;28;20273;-50
2023/02/05 00:55:22;;;;;;;74.30;27.00;;;;;;;19.21;94.01;103482.50;5057089;28;20275;-54
2023/02/05 00:57:48;;;;;;;69.30;28.65;;;;;;;18.12;100.00;103471.06;5054887;28;20278;-55
2023/02/05 01:00:13;;;;;;;85.00;31.95;;;;;;;18.93;96.22;103475.00;5060736;28;20033;-53
2023/02/05 01:02:39;;;;;;;74.25;30.80;;;;;;;19.10;94.44;103475.69;5058407;28;20025;-54
2023/02/05 01:05:05;;;;;;;76.65;29.50;;;;;;;19.02;92.46;103468.50;5060000;28;20041;-51
2023/02/05 01:07:31;;;;;;;86.25;30.52;;;;;;;19.30;92.46;103464.25;5058460;28;20168;-55
2023/02/05 01:09:56;;;;;;;80.00;31.17;;;;;;;19.44;91.63;103465.25;5057900;28;20044;-52
2023/02/05 01:12:23;;;;;;;84.93;30.20;;;;;;;19.57;90.81;103480.84;5058925;28;20021;-51
2023/02/05 01:14:49;;;;;;;79.55;28.95;;;;;;;18.77;94.16;103478.72;5063705;28;20032;-55
2023/02/05 01:17:15;;;;;;;64.07;27.23;;;;;;;19.03;93.11;103481.00;5057135;28;20036;-50
2023/02/05 01:19:41;;;;;;;70.30;25.98;;;;;;;18.36;96.64;103474.56;5056212;28;20041;-54
2023/02/05 01:22:06;;;;;;;73.17;27.63;;;;;;;18.66;96.69;103471.06;5052803;28;20033;-54
2023/02/05 01:24:32;;;;;;;77.28;28.90;;;;;;;18.71;96.58;103477.63;5057741;28;20089;-56
2023/02/05 01:26:58;;;;;;;74.55;28.27;;;;;;;19.05;94.55;103484.38;5054753;28;20053;-56
2023/02/05 01:29:25;;;;;;;72.80;30.80;;;;;;;17.98;99.00;103467.25;5054839;28;20061;-54
2023/02/05 01:31:50;;;;;;;88.47;32.63;;;;;;;18.98;95.42;103472.59;5053712;28;20033;-55
2023/02/05 01:34:16;;;;;;;89.18;30.42;;;;;;;19.50;91.48;103480.75;5060055;28;20278;-54
2023/02/05 01:36:41;;;;;;;75.57;29.37;;;;;;;19.34;92.11;103479.94;5062873;28;20065;-57
2023/02/05 01:39:07;;;;;;;81.60;29.63;;;;;;;19.21;92.47;103474.38;5056716;28;20294;-51
2023/02/05 01:41:33;;;;;;;81.30;29.20;;;;;;;19.01;93.53;103472.22;5059430;28;20049;-54
2023/02/05 01:44:04;;;;;;;81.15;30.60;;;;;;;18.27;96.24;103470.28;5053612;28;20040;-52
2023/02/05 01:46:30;;;;;;;83.73;30.73;;;;;;;18.32;97.62;103476.81;5062137;28;20100;-54
2023/02/05 01:48:57;;;;;;;80.18;29.60;;;;;;;18.41;97.54;103485.69;5059430;28;20270;-56
2023/02/05 01:51:26;;;;;;;78.17;28.70;;;;;;;18.31;97.80;103482.41;5059442;28;20029;-50
2023/02/05 01:53:52;;;;;;;55.83;24.23;;;;;;;18.92;94.02;103482.28;5059726;28;20346;-52
2023/02/05 01:56:32;;;;;;;62.03;25.17;;;;;;;18.02;100.00;103481.31;5057164;28;20282;-55
2023/02/05 01:59:07;;;;;;;58.37;24.57;;;;;;;18.29;97.63;103474.47;5054356;28;20037;-49
2023/02/05 02:01:35;;;;;;;58.43;23.67;;;;;;;18.45;97.40;103484.31;5067104;28;20293;-53
2023/02/05 02:04:03;;;;;;;58.17;25.02;;;;;;;18.56;96.23;103479.47;5060665;28;20275;-54
2023/02/05 02:06:31;;;;;;;50.07;22.37;;;;;;;18.60;96.07;103481.63;5055301;28;20037;-53
2023/02/05 02:08:57;;;;;;;56.83;23.67;;;;;;;18.87;94.42;103481.16;5054520;28;20273;-54
2023/02/05 02:11:26;;;;;;;50.13;22.40;;;;;;;18.95;94.22;103467.53;5059611;28;20267;-51
2023/02/05 02:13:54;;;;;;;45.00;20.05;;;;;;;18.98;93.18;103453.63;5050345;28;20480;-51
2023/02/05 02:16:20;;;;;;;45.13;19.37;;;;;;;18.91;92.70;103450.78;5052503;28;20057;-50
2023/02/05 02:18:46;;;;;;;51.63;22.17;;;;;;;18.46;95.55;103448.06;5062817;28;20262;-53
2023/02/05 02:21:30;;;;;;;54.53;23.40;;;;;;;19.12;92.36;103440.22;5057460;28;20041;-53
2023/02/05 02:24:22;;;;;;;51.83;20.43;;;;;;;17.97;96.84;103443.06;5054891;28;20056;-55
2023/02/05 02:27:20;;;;;;;43.63;20.57;;;;;;;17.50;100.00;103443.03;5051205;28;20266;-56
2023/02/05 02:30:02;;;;;;;48.77;20.23;;;;;;;17.66;100.00;103450.22;5046907;28;20304;-53
2023/02/05 02:32:38;;;;;;;49.13;19.13;;;;;;;18.26;98.42;103438.78;5053090;28;20259;-55
2023/02/05 02:35:15;;;;;;;45.10;17.97;;;;;;;18.17;97.43;103432.59;5052968;28;20286;-54
2023/02/05 02:37:52;;;;;;;37.73;18.50;;;;;;;17.91;99.01;103434.63;5055962;28;20270;-52
2023/02/05 02:40:24;;;;;;;39.03;18.98;;;;;;;17.74;100.00;103427.66;5058990;28;20300;-54
2023/02/05 02:43:04;;;;;;;45.50;19.47;;;;;;;18.18;97.45;103434.28;5055561;28;20034;-54
2023/02/05 02:45:34;;;;;;;40.33;18.23;;;;;;;18.14;97.87;103427.56;5056026;28;20271;-54
2023/02/05 02:48:02;;;;;;;39.70;16.83;;;;;;;18.69;93.31;103425.47;5057818;28;20270;-50
2023/02/05 02:50:33;;;;;;;34.67;14.90;;;;;;;18.58;93.32;103420.50;5059729;28;20258;-54
2023/02/05 02:53:08;;;;;;;37.20;16.03;;;;;;;18.41;93.53;103423.38;5059060;28;20270;-55
2023/02/05 02:55:41;;;;;;;32.00;15.10;;;;;;;18.38;93.62;103412.09;5061469;28;20265;-49
2023/02/05 02:58:10;;;;;;;48.33;18.83;;;;;;;17.47;99.39;103398.28;5060464;28;20342;-52
2023/02/05 03:00:38;;;;;;;54.57;22.27;;;;;;;17.66;98.75;103396.13;5062474;28;20266;-50
2023/02/05 03:03:07;;;;;;;56.13;20.97;;;;;;;18.31;94.51;103406.56;5059432;28;20294;-55
2023/02/05 03:05:34;;;;;;;61.57;23.37;;;;;;;17.68;98.77;103401.34;5058918;28;20296;-52
2023/02/05 03:08:13;;;;;;;45.83;19.50;;;;;;;17.89;96.37;103414.22;5066139;28;20277;-52
2023/02/05 03:10:47;;;;;;;40.20;16.97;;;;;;;18.20;93.90;103408.69;5058755;28;20304;-55
2023/02/05 03:13:14;;;;;;;30.63;14.37;;;;;;;18.07;93.77;103408.50;5062623;28;20337;-54
2023/02/05 03:15:45;;;;;;;31.83;14.83;;;;;;;17.61;95.24;103415.59;5056127;28;20316;-52
2023/02/05 03:18:12;;;;;;;;;;;;;;;17.64;96.49;103414.38;5062467;28;20330;-52
2023/02/05 03:20:45;;;;;;;30.80;14.43;;;;;;;18.08;93.89;103431.84;5058908;28;19925;-52
2023/02/05 03:23:14;;;;;;;28.85;13.10;;;;;;;17.94;94.76;103416.34;5078307;28;20095;-55
2023/02/05 03:25:39;;;;;;;27.67;13.10;;;;;;;17.67;96.05;103415.88;5062078;28;20025;-53
2023/02/05 03:28:07;;;;;;;29.40;13.87;;;;;;;17.87;94.90;103417.09;5064367;28;20030;-58
2023/02/05 03:30:54;;;;;;;;;;;;;;;18.09;93.37;103419.13;5059289;28;20285;-53
2023/02/05 03:33:45;;;;;;;30.60;12.87;;;;;;;17.96;93.87;103425.97;5062052;28;19917;-55
2023/02/05 03:36:50;;;;;;;30.02;13.50;;;;;;;17.99;93.62;103431.03;5060265;28;20286;-53
2023/02/05 03:39:44;;;;;;;28.07;14.33;;;;;;;17.24;95.34;103437.97;5059733;28;20040;-51
2023/02/05 03:42:19;;;;;;;32.13;15.43;;;;;;;17.61;95.19;103425.56;5061443;28;20333;-51
2023/02/05 03:44:54;;;;;;;32.20;14.77;;;;;;;17.94;93.50;103429.88;5062350;28;20297;-57
2023/02/05 03:47:53;;;;;;;45.33;17.97;;;;;;;17.62;94.25;103428.09;5055107;28;20313;-49
2023/02/05 03:50:28;;;;;;;;;;;;;;;17.55;96.58;103429.00;5050924;28;20271;-51
2023/02/05 03:53:03;;;;;;;43.70;19.98;;;;;;;17.87;94.60;103427.91;5059441;28;19920;-49
2023/02/05 03:55:39;;;;;;;49.20;20.33;;;;;;;18.05;92.90;103430.31;5059401;28;20049;-51
2023/02/05 03:58:13;;;;;;;51.83;22.40;;;;;;;17.83;94.80;103432.00;5053685;28;20325;-54
2023/02/05 04:00:40;;;;;;;47.35;22.10;;;;;;;17.72;96.52;103432.41;5058363;28;20101;-54
2023/02/05 04:03:06;;;;;;;54.67;23.00;;;;;;;17.61;95.86;103439.09;5059998;28;20037;-55
2023/02/05 04:05:32;;;;;;;;;;;;;;;18.28;91.72;103436.75;5062176;28;20263;-53
2023/02/05 04:08:01;;;;;;;58.07;22.60;;;;;;;17.97;93.26;103433.06;5059133;28;19985;-53
2023/02/05 04:10:31;;;;;;;57.03;22.23;;;;;;;17.50;95.45;103443.03;5062903;28;20261;-54
2023/02/05 04:13:00;;;;;;;52.03;21.83;;;;;;;16.84;100.00;103433.34;5058561;28;20266;-52
2023/02/05 04:15:26;;;;;;;;;;;;;;;17.03;100.00;103434.81;5060857;28;20329;-52
2023/02/05 04:17:56;;;;;;;40.42;18.08;;;;;;;16.85;99.55;103426.09;5059249;28;19912;-54
2023/02/05 04:20:23;;;;;;;40.83;19.63;;;;;;;18.26;91.57;103423.38;5061939;28;20032;-54
2023/02/05 04:22:49;;;;;;;44.58;18.92;;;;;;;17.38;96.07;103418.25;5061911;28;20029;-52
2023/02/05 04:25:15;;;;;;;36.72;16.48;;;;;;;17.36;94.56;103428.41;5059591;28;20052;-53
2023/02/05 04:27:41;;;;;;;;;;;;;;;17.55;93.20;103423.56;5061019;28;20036;-57
2023/02/05 04:30:09;;;;;;;31.67;13.73;;;;;;;17.89;91.37;103425.88;5062626;28;19928;-53
2023/02/05 04:32:38;;;;;;;26.52;12.70;;;;;;;17.03;94.66;103437.53;5063256;28;20025;-52
2023/02/05 04:35:04;;;;;;;32.90;12.57;;;;;;;17.13;95.12;103436.50;5060142;28;20037;-52
2023/02/05 04:37:30;;;;;;;28.05;12.93;;;;;;;17.56;93.29;103430.66;5060099;28;20076;-54
2023/02/05 04:39:55;;;;;;;26.60;11.83;;;;;;;16.54;97.15;103429.56;5061922;28;20037;-51
2023/02/05 04:42:21;;;;;;;34.50;12.53;;;;;;;17.41;95.16;103428.72;5061992;28;20294;-53
2023/02/05 04:44:46;;;;;;;31.53;13.00;;;;;;;17.80;92.42;103426.09;5060393;28;20052;-53
2023/02/05 04:47:12;;;;;;;30.27;13.87;;;;;;;17.13;95.94;103425.69;5064421;28;20135;-52
2023/02/05 04:49:39;;;;;;;;;;;;;;;17.63;95.17;103424.38;5060083;28;20033;-53
2023/02/05 04:52:05;;;;;;;27.77;13.75;;;;;;;17.32;96.49;103414.44;5062265;28;19921;-53
2023/02/05 04:54:31;;;;;;;24.97;13.20;;;;;;;17.76;93.21;103422.91;5058630;28;20097;-51
2023/02/05 04:56:57;;;;;;;29.92;12.93;;;;;;;17.84;93.52;103420.16;5059856;28;20029;-50
2023/02/05 04:59:23;;;;;;;28.57;12.13;;;;;;;17.52;94.45;103418.53;5060219;28;20056;-54
2023/02/05 05:01:48;;;;;;;33.35;11.20;;;;;;;17.75;94.05;103415.81;5057883;28;20207;-55
2023/02/05 05:04:14;;;;;;;24.60;13.00;;;;;;;18.22;90.43;103422.06;5058715;28;20041;-52
2023/02/05 05:06:39;;;;;;;28.63;13.37;;;;;;;17.94;92.98;103411.78;5060493;28;20025;-53
2023/02/05 05:09:05;;;;;;;24.17;12.53;;;;;;;17.87;94.05;103419.78;5060421;28;20030;-54
2023/02/05 05:11:30;;;;;;;23.52;12.38;;;;;;;17.51;96.42;103428.50;5059826;28;20035;-52
2023/02/05 05:13:56;;;;;;;33.77;13.63;;;;;;;17.59;96.43;103424.91;5057870;28;20043;-54
2023/02/05 05:16:22;;;;;;;26.80;13.38;;;;;;;17.89;95.63;103430.44;5061773;28;20035;-53
2023/02/05 05:18:50;;;;;;;26.53;12.57;;;;;;;17.40;97.47;103420.78;5059797;28;20037;-53
2023/02/05 05:21:16;;;;;;;36.45;14.52;;;;;;;17.80;96.78;103424.25;5061619;28;20097;-56
2023/02/05 05:23:41;;;;;;;36.70;13.90;;;;;;;17.02;100.00;103419.63;5060226;28;20049;-54
2023/02/05 05:26:09;;;;;;;31.33;14.10;;;;;;;17.25;100.00;103421.53;5058055;28;20271;-52
2023/02/05 05:28:36;;;;;;;34.38;15.50;;;;;;;16.99;100.00;103427.25;5059105;28;20034;-54
2023/02/05 05:31:16;;;;;;;44.97;16.65;;;;;;;17.31;100.00;103422.72;5055968;28;20083;-55
2023/02/05 05:33:41;;;;;;;38.85;16.35;;;;;;;18.02;100.00;103424.44;5057576;28;20111;-52
2023/02/05 05:36:07;;;;;;;59.23;19.73;;;;;;;18.19;99.98;103442.22;5057380;28;20045;-55
2023/02/05 05:38:33;;;;;;;41.03;18.05;;;;;;;18.00;99.54;103431.88;5059849;28;20044;-56
2023/02/05 05:43:45;;;;;;;28.83;14.93;;;;;;;16.95;100.00;103426.72;5064995;28;20045;-57
2023/02/05 05:46:13;;;;;;;31.75;14.10;;;;;;;17.39;100.00;103432.63;5060648;28;20033;-54
2023/02/05 05:48:40;;;;;;;25.88;13.82;;;;;;;16.96;100.00;103417.59;5061764;28;20049;-56
2023/02/05 05:51:05;;;;;;;24.85;11.07;;;;;;;16.96;100.00;103420.31;5051397;28;20033;-52
2023/02/05 05:53:31;;;;;;;23.10;10.82;;;;;;;17.08;100.00;103419.97;5055636;28;20548;-54
2023/02/05 05:55:57;;;;;;;22.98;9.77;;;;;;;17.02;100.00;103418.81;5055548;28;20064;-54
2023/02/05 05:58:23;;;;;;;23.30;8.25;;;;;;;16.96;100.00;103423.00;5053849;28;20041;-53
2023/02/05 06:00:49;;;;;;;11.93;6.63;;;;;;;17.78;100.00;103415.47;5055990;28;20057;-55
2023/02/05 06:03:15;;;;;;;11.55;6.22;;;;;;;18.23;99.82;103421.03;5056284;28;20282;-55
2023/02/05 06:05:41;;;;;;;15.33;5.70;;;;;;;18.03;99.04;103426.13;5059246;28;20071;-56
2023/02/05 06:08:06;;;;;;;9.75;4.13;;;;;;;17.44;100.00;103414.88;5061035;28;20041;-55
2023/02/05 06:10:32;;;;;;;7.10;3.40;;;;;;;17.44;100.00;103425.69;5058389;28;20040;-50
2023/02/05 06:12:58;;;;;;;6.55;2.53;;;;;;;17.14;100.00;103427.38;5058616;28;20032;-53
2023/02/05 06:15:25;;;;;;;8.52;2.65;;;;;;;17.60;100.00;103435.56;5060081;28;20044;-53
2023/02/05 06:17:51;;;;;;;10.70;1.70;;;;;;;16.85;100.00;103436.91;5060289;28;20060;-54
2023/02/05 06:20:17;;;;;;;6.55;1.70;;;;;;;16.48;100.00;103442.72;5057827;28;20041;-53
2023/02/05 06:22:43;;;;;;;9.55;1.88;;;;;;;16.90;100.00;103450.75;5056500;28;20048;-55
2023/02/05 06:25:09;;;;;;;14.20;2.42;;;;;;;17.19;100.00;103454.72;5059873;28;20037;-54
2023/02/05 06:27:35;;;;;;;15.27;2.17;;;;;;;17.20;100.00;103459.97;5059189;28;20044;-56
2023/02/05 06:30:01;;;;;;;7.38;1.48;;;;;;;17.16;100.00;103460.47;5059165;28;20040;-54
2023/02/05 06:32:27;;;;;;;9.77;1.75;;;;;;;16.60;100.00;103461.28;5060904;28;20048;-56
2023/02/05 06:34:52;;;;;;;9.47;1.30;;;;;;;17.09;100.00;103475.72;5060446;28;20108;-57
2023/02/05 06:37:18;;;;;;;5.78;1.33;;;;;;;17.28;98.85;103487.97;5060264;28;20042;-54
2023/02/05 06:39:43;;;;;;;17.08;2.30;;;;;;;16.57;100.00;103491.34;5060639;28;20044;-54
2023/02/05 06:42:09;;;;;;;11.20;1.53;;;;;;;16.67;99.98;103497.41;5059856;28;20093;-51
2023/02/05 06:44:34;;;;;;;6.60;1.10;;;;;;;16.50;100.00;103491.19;5059330;28;20052;-56
2023/02/05 06:47:00;;;;;;;8.07;1.10;;;;;;;16.05;100.00;103499.63;5057776;28;20284;-55
2023/02/05 06:49:26;;;;;;;6.60;1.25;;;;;;;15.91;100.00;103498.44;5062359;28;20039;-54
2023/02/05 06:51:52;;;;;;;5.15;1.05;;;;;;;16.05;100.00;103515.81;5059350;28;20033;-53
2023/02/05 06:54:18;;;;;;;17.88;2.03;;;;;;;15.55;100.00;103517.53;5060718;28;20039;-54
2023/02/05 06:56:44;;;;;;;2.47;0.68;;;;;;;15.81;100.00;103531.94;5058978;28;20037;-55
2023/02/05 06:59:09;;;;;;;8.93;1.03;;;;;;;15.68;100.00;103541.34;5061132;28;20036;-54
2023/02/05 07:01:35;;;;;;;7.18;0.98;;;;;;;15.95;100.00;103546.69;5058024;28;20032;-53
2023/02/05 07:04:01;;;;;;;4.77;1.00;;;;;;;15.61;100.00;103551.91;5058672;28;20065;-51
2023/02/05 07:06:27;;;;;;;10.50;1.40;;;;;;;15.92;100.00;103561.34;5060637;28;20274;-54
2023/02/05 07:08:53;;;;;;;13.10;1.40;;;;;;;15.87;100.00;103569.88;5058959;28;20037;-50
2023/02/05 07:11:20;;;;;;;9.48;2.17;;;;;;;15.82;100.00;103568.69;5058996;28;20024;-52
2023/02/05 07:13:46;;;;;;;9.45;1.15;;;;;;;16.55;100.00;103579.81;5059877;28;20037;-55
2023/02/05 07:16:12;;;;;;;10.43;2.50;;;;;;;16.43;100.00;103585.56;5060568;28;20051;-49
2023/02/05 07:18:37;;;;;;;11.27;1.67;;;;;;;16.03;100.00;103587.16;5057948;28;20021;-54
2023/02/05 07:21:07;;;;;;;15.23;2.23;;;;;;;15.78;100.00;103581.66;5058260;28;20032;-52
2023/02/05 07:23:33;;;;;;;6.88;1.20;;;;;;;16.33;100.00;103595.66;5058843;28;20057;-50
2023/02/05 07:26:06;;;;;;;12.40;1.73;;;;;;;16.13;100.00;103593.25;5060030;28;20120;-54
2023/02/05 07:28:31;;;;;;;14.00;1.60;;;;;;;15.79;100.00;103607.63;5060829;28;20037;-57
2023/02/05 07:31:05;;;;;;;5.03;1.40;;;;;;;16.03;100.00;103601.53;5063183;28;20033;-56
2023/02/05 07:33:31;;;;;;;9.38;2.08;;;;;;;16.10;100.00;103614.34;5059823;28;20026;-57
2023/02/05 07:35:57;;;;;;;7.13;1.38;;;;;;;16.60;100.00;103621.53;5061563;28;20049;-55
2023/02/05 07:38:23;;;;;;;12.10;2.40;;;;;;;16.72;100.00;103627.44;5061977;28;20052;-55
2023/02/05 07:40:49;;;;;;;11.95;1.90;;;;;;;17.03;97.73;103632.16;5061251;28;20109;-54
2023/02/05 07:43:15;;;;;;;12.63;2.25;;;;;;;17.15;97.29;103631.84;5062170;28;20068;-54
2023/02/05 07:45:41;;;;;;;16.40;2.25;;;;;;;16.60;99.18;103634.16;5063047;28;20055;-50
2023/02/05 07:48:06;;;;;;;16.40;2.80;;;;;;;16.76;96.60;103642.28;5057772;28;20033;-53
2023/02/05 07:50:32;;;;;;;19.23;2.43;;;;;;;16.61;97.27;103644.00;5059468;28;20033;-53
2023/02/05 07:52:57;;;;;;;16.80;2.63;;;;;;;16.41;97.20;103644.28;5063105;28;20037;-54
2023/02/05 07:55:22;;;;;;;8.77;1.43;;;;;;;16.37;98.18;103651.00;5065933;28;20079;-51
2023/02/05 07:57:48;;;;;;;15.65;2.20;;;;;;;16.23;100.00;103652.50;5060854;28;20029;-55
2023/02/05 08:00:14;;;;;;;10.90;1.73;;;;;;;15.62;100.00;103648.03;5065203;28;20063;-57
2023/02/05 08:02:39;;;;;;;15.20;2.83;;;;;;;15.83;100.00;103652.16;5066683;28;20312;-54
2023/02/05 08:05:05;;;;;;;17.00;2.00;;;;;;;16.03;100.00;103650.09;5061587;28;20101;-54
2023/02/05 08:07:31;;;;;;;19.20;3.28;;;;;;;16.15;100.00;103645.25;5061445;28;20044;-51
2023/02/05 08:09:57;;;;;;;20.52;2.70;;;;;;;16.02;95.86;103648.38;5063229;28;20041;-56
2023/02/05 08:12:22;;;;;;;30.02;2.58;;;;;;;15.97;98.88;103649.91;5061890;28;20036;-53
2023/02/05 08:14:48;;;;;;;19.43;3.37;;;;;;;16.22;97.79;103642.72;5062743;28;20030;-54
2023/02/05 08:17:13;;;;;;;15.82;3.20;;;;;;;16.37;99.93;103645.63;5060090;28;20060;-57
2023/02/05 08:19:39;;;;;;;12.27;1.93;;;;;;;16.39;96.27;103650.88;5061657;28;20041;-57
2023/02/05 08:22:04;;;;;;;11.18;1.48;;;;;;;16.39;99.26;103650.88;5059777;28;20098;-54
2023/02/05 08:24:30;;;;;;;14.40;2.28;;;;;;;16.69;96.51;103652.09;5058319;28;20040;-56
2023/02/05 08:26:56;;;;;;;16.50;2.58;;;;;;;16.41;96.05;103655.09;5059898;28;20101;-56
2023/02/05 08:29:21;;;;;;;12.83;2.60;;;;;;;16.49;97.06;103660.50;5062824;28;20040;-54
2023/02/05 08:31:47;;;;;;;23.20;2.97;;;;;;;16.74;96.01;103657.84;5058161;28;20041;-55
2023/02/05 08:34:14;;;;;;;9.15;1.85;;;;;;;16.51;98.66;103660.34;5059064;28;20063;-53
2023/02/05 08:36:39;;;;;;;17.00;2.85;;;;;;;16.14;95.31;103648.94;5061121;28;20056;-55
2023/02/05 08:39:05;;;;;;;23.27;2.87;;;;;;;16.32;96.75;103639.88;5062411;28;20041;-57
2023/02/05 08:41:30;;;;;;;7.90;1.95;;;;;;;16.18;95.16;103652.16;5060319;28;20041;-57
2023/02/05 08:43:56;;;;;;;12.30;2.97;;;;;;;16.49;96.31;103655.09;5060252;28;20043;-53
2023/02/05 08:46:26;;;;;;;17.85;3.78;;;;;;;16.87;94.75;103670.00;5064437;28;20037;-54
2023/02/05 08:48:52;;;;;;;24.48;4.35;;;;;;;16.69;93.22;103668.31;5059222;28;20064;-55
2023/02/05 08:51:21;;;;;;;13.97;3.03;;;;;;;16.43;95.04;103673.81;5058696;28;20036;-53
2023/02/05 08:53:48;;;;;;;19.00;2.42;;;;;;;16.58;96.04;103682.97;5058870;28;20270;-55
2023/02/05 08:56:14;;;;;;;33.55;3.40;;;;;;;15.85;96.60;103682.53;5059921;28;20037;-54
2023/02/05 08:58:40;;;;;;;12.50;2.53;;;;;;;16.67;95.03;103694.66;5059105;28;20041;-52
2023/02/05 09:01:12;;;;;;;31.67;3.75;;;;;;;16.57;95.53;103678.59;5059820;28;20113;-55
2023/02/05 09:03:38;;;;;;;20.30;2.60;;;;;;;17.29;94.90;103681.66;5058984;28;20037;-57
2023/02/05 09:06:07;;;;;;;22.08;3.30;;;;;;;17.04;92.64;103696.03;5059465;28;20056;-56
2023/02/05 09:08:33;;;;;;;22.70;2.87;;;;;;;16.98;93.38;103691.31;5060143;28;20033;-52
2023/02/05 09:10:59;;;;;;;;;;;;;;;17.12;94.76;103695.19;5059921;28;20294;-55
2023/02/05 09:13:24;;;;;;;21.47;3.67;;;;;;;17.09;94.10;103694.72;5060298;28;19935;-57
2023/02/05 09:15:50;;;;;;;27.77;3.78;;;;;;;17.51;92.47;103693.63;5055582;28;20045;-54
2023/02/05 09:18:16;;;;;;;26.58;3.30;;;;;;;17.08;93.87;103693.03;5059668;28;20266;-53
2023/02/05 09:20:44;;;;;;;30.52;5.50;;;;;;;17.13;90.99;103713.09;5060774;28;20089;-53
2023/02/05 09:23:12;;;;;;;18.53;2.87;;;;;;;17.23;95.60;103712.09;5059286;28;20040;-54
2023/02/05 09:25:38;;;;;;;28.30;3.10;;;;;;;16.77;98.37;103706.13;5059627;28;20306;-53
2023/02/05 09:28:06;;;;;;;21.60;2.45;;;;;;;16.62;99.66;103700.53;5059669;28;20297;-54
2023/02/05 09:30:33;;;;;;;25.08;5.47;;;;;;;17.51;96.02;103704.44;5057611;28;20044;-53
2023/02/05 09:32:58;;;;;;;18.58;3.65;;;;;;;16.45;94.73;103701.50;5061208;28;20033;-54
2023/02/05 09:35:24;;;;;;;26.42;4.22;;;;;;;17.26;96.84;103711.78;5061257;28;20060;-54
2023/02/05 09:37:50;;;;;;;37.73;4.93;;;;;;;17.51;95.17;103709.03;5060143;28;20037;-51
2023/02/05 09:40:21;;;;;;;18.15;3.08;;;;;;;18.28;91.74;103710.31;5057080;28;20111;-52
2023/02/05 09:43:19;;;;;;;17.20;2.77;;;;;;;17.48;93.90;103710.19;5057534;28;20044;-52
2023/02/05 09:45:59;;;;;;;22.88;4.32;;;;;;;18.33;88.69;103710.63;5057172;28;20274;-53
2023/02/05 09:48:35;;;;;;;25.00;3.70;;;;;;;18.45;86.78;103725.47;5060046;28;20048;-53
2023/02/05 09:51:03;;;;;;;21.30;3.92;;;;;;;18.70;85.75;103719.91;5057347;28;20298;-54
2023/02/05 09:53:35;;;;;;;15.83;2.83;;;;;;;17.85;89.41;103718.75;5059801;28;20047;-55
2023/02/05 09:56:05;;;;;;;23.40;3.83;;;;;;;18.03;86.24;103710.44;5054079;28;20314;-54
2023/02/05 09:58:34;;;;;;;23.27;4.47;;;;;;;18.10;88.86;103702.44;5060472;28;20274;-54
2023/02/05 10:01:05;;;;;;;25.40;3.90;;;;;;;17.88;88.42;103704.88;5056665;28;20279;-56
2023/02/05 10:03:43;;;;;;;23.30;4.00;;;;;;;18.65;87.92;103714.16;5058501;28;20277;-51
2023/02/05 10:06:08;;;;;;;24.63;3.43;;;;;;;18.61;87.93;103727.22;5056488;28;20290;-56
2023/02/05 10:08:42;;;;;;;27.47;4.77;;;;;;;18.69;84.55;103718.22;5058251;28;20270;-55
2023/02/05 10:11:23;;;;;;;18.80;4.23;;;;;;;18.44;86.26;103726.47;5059384;28;20089;-54
2023/02/05 10:14:07;;;;;;;32.23;4.67;;;;;;;18.70;85.91;103736.16;5055033;28;20281;-52
2023/02/05 10:16:51;;;;;;;21.23;4.47;;;;;;;18.74;84.54;103723.94;5057464;28;20274;-55
2023/02/05 10:19:36;;;;;;;24.17;5.13;;;;;;;20.40;80.11;103722.25;5058357;28;20372;-54
2023/02/05 10:22:25;;;;;;;24.57;4.13;;;;;;;21.45;76.36;103737.25;5061164;28;20310;-54
2023/02/05 10:25:43;;;;;;;27.00;4.60;;;;;;;21.74;74.11;103747.09;5058143;28;20832;-53
2023/02/05 10:28:36;;;;;;;17.20;3.67;;;;;;;20.52;73.99;103743.47;5048104;28;20281;-56
2023/02/05 10:31:33;;;;;;;21.90;3.57;;;;;;;20.84;72.50;103735.91;5060278;28;20253;-53
2023/02/05 10:34:14;;;;;;;15.23;3.38;;;;;;;22.11;69.93;103746.03;5056468;28;20278;-52
2023/02/05 10:36:42;;;;;;;15.23;3.00;;;;;;;21.06;71.44;103743.03;5056310;28;20042;-54
2023/02/05 10:39:14;;;;;;;18.73;3.73;;;;;;;20.30;73.49;103751.63;5056550;28;20274;-55
2023/02/05 10:41:56;;;;;;;10.70;2.90;;;;;;;20.34;74.97;103726.56;5057861;28;20346;-56
2023/02/05 10:44:29;;;;;;;16.70;4.07;;;;;;;20.08;75.81;103727.09;5058266;28;20270;-54
2023/02/05 10:47:24;;;;;;;18.63;3.33;;;;;;;20.20;77.76;103733.72;5059445;28;20329;-54
2023/02/05 10:50:00;;;;;;;22.13;3.37;;;;;;;20.29;76.71;103730.88;5049190;28;20294;-55
2023/02/05 10:52:25;;;;;;;23.03;3.30;;;;;;;20.47;73.65;103742.19;5057504;28;20271;-54
2023/02/05 10:54:52;;;;;;;17.73;3.95;;;;;;;20.32;75.47;103752.28;5056380;28;20266;-52
2023/02/05 10:57:30;;;;;;;24.52;3.65;;;;;;;19.38;75.51;103748.22;5059050;28;20037;-55
2023/02/05 10:59:58;;;;;;;24.03;4.03;;;;;;;19.42;78.67;103749.53;5062938;28;20033;-54
2023/02/05 11:02:33;;;;;;;20.27;4.47;;;;;;;19.16;81.24;103761.63;5062477;28;20371;-54
2023/02/05 11:05:05;;;;;;;18.47;2.77;;;;;;;19.42;82.85;103765.81;5060062;28;20353;-52
2023/02/05 11:07:36;;;;;;;25.47;4.90;;;;;;;19.17;75.74;103769.56;5062496;28;20277;-53
2023/02/05 11:10:27;;;;;;;21.30;4.33;;;;;;;19.40;79.96;103754.28;5042628;28;20258;-52
2023/02/05 11:13:00;;;;;;;14.37;2.70;;;;;;;19.58;79.80;103754.75;5063656;28;20277;-51
2023/02/05 11:15:29;;;;;;;25.93;4.60;;;;;;;18.83;78.12;103746.41;5058599;28;20274;-55
2023/02/05 11:18:04;;;;;;;22.47;4.90;;;;;;;19.63;74.61;103751.50;5059511;28;20279;-52
2023/02/05 11:20:38;;;;;;;22.57;4.13;;;;;;;19.75;75.75;103741.88;5060023;28;20258;-52
2023/02/05 11:23:18;;;;;;;21.73;3.03;;;;;;;19.92;77.43;103749.84;5060497;28;20266;-53
2023/02/05 11:25:52;;;;;;;18.80;4.40;;;;;;;19.91;74.80;103756.31;5061014;28;20258;-59
2023/02/05 11:28:21;;;;;;;29.27;4.60;;;;;;;20.55;75.39;103762.16;5059694;28;20274;-54